createdAt,value
2022-09-01T00:00:03.469Z,16.10
2022-09-01T00:02:30.997Z,16.00
2022-09-01T00:04:59.059Z,16.10
2022-09-01T00:07:30.670Z,16.00
2022-09-01T00:10:00.029Z,16.00
2022-09-01T00:12:29.248Z,15.80
2022-09-01T00:14:56.473Z,15.80
2022-09-01T00:17:23.562Z,15.80
2022-09-01T00:19:50.670Z,15.70
2022-09-01T00:22:17.881Z,15.70
2022-09-01T00:24:44.867Z,15.60
2022-09-01T00:27:11.846Z,15.70
2022-09-01T00:29:43.956Z,15.60
2022-09-01T00:32:11.751Z,15.60
2022-09-01T00:34:39.196Z,15.60
2022-09-01T00:37:06.294Z,15.60
2022-09-01T00:39:33.287Z,15.60
2022-09-01T00:42:00.787Z,15.60
2022-09-01T00:44:29.792Z,15.70
2022-09-01T00:46:58.845Z,15.60
2022-09-01T00:49:43.957Z,15.50
2022-09-01T00:52:41.153Z,15.50
2022-09-01T00:55:19.877Z,15.30
2022-09-01T00:57:47.534Z,15.30
2022-09-01T01:00:22.474Z,15.40
2022-09-01T01:02:55.985Z,15.50
2022-09-01T01:05:34.933Z,15.30
2022-09-01T01:08:03.796Z,15.30
2022-09-01T01:10:33.230Z,15.20
2022-09-01T01:13:04.799Z,15.30
2022-09-01T01:15:32.804Z,15.30
2022-09-01T01:18:00.138Z,15.30
2022-09-01T01:20:47.189Z,15.30
2022-09-01T01:23:26.819Z,15.10
2022-09-01T01:25:58.241Z,15.00
2022-09-01T01:28:33.029Z,15.00
2022-09-01T01:31:12.101Z,15.00
2022-09-01T01:33:52.100Z,15.00
2022-09-01T01:36:34.163Z,15.10
2022-09-01T01:39:11.938Z,15.10
2022-09-01T01:41:42.828Z,14.90
2022-09-01T01:44:12.079Z,14.80
2022-09-01T01:46:44.243Z,14.80
2022-09-01T01:49:13.441Z,14.90
2022-09-01T01:51:41.087Z,14.80
2022-09-01T01:54:09.165Z,14.80
2022-09-01T01:56:41.712Z,14.80
2022-09-01T01:59:11.966Z,14.70
2022-09-01T02:01:39.453Z,14.80
2022-09-01T02:04:06.581Z,14.90
2022-09-01T02:06:35.245Z,14.90
2022-09-01T02:09:04.261Z,14.70
2022-09-01T02:11:33.770Z,14.70
2022-09-01T02:14:01.088Z,14.80
2022-09-01T02:16:29.635Z,14.60
2022-09-01T02:18:56.593Z,14.60
2022-09-01T02:21:24.752Z,14.60
2022-09-01T02:24:01.332Z,14.60
2022-09-01T02:26:31.590Z,14.70
2022-09-01T02:29:04.621Z,14.60
2022-09-01T02:31:35.555Z,14.70
2022-09-01T02:34:03.889Z,14.80
2022-09-01T02:36:35.143Z,14.80
2022-09-01T02:39:02.630Z,14.80
2022-09-01T02:41:32.860Z,14.70
2022-09-01T02:44:02.640Z,14.60
2022-09-01T02:46:30.398Z,14.60
2022-09-01T02:48:57.394Z,14.60
2022-09-01T02:51:25.688Z,14.70
2022-09-01T02:53:54.647Z,14.70
2022-09-01T02:56:25.434Z,14.70
2022-09-01T02:58:53.250Z,14.70
2022-09-01T03:01:25.257Z,14.60
2022-09-01T03:03:54.985Z,14.60
2022-09-01T03:06:24.465Z,14.60
2022-09-01T03:08:59.961Z,14.70
2022-09-01T03:11:31.745Z,14.70
2022-09-01T03:14:00.087Z,14.60
2022-09-01T03:16:27.455Z,14.60
2022-09-01T03:18:54.430Z,14.60
2022-09-01T03:21:22.072Z,14.60
2022-09-01T03:23:50.893Z,14.60
2022-09-01T03:26:19.521Z,14.60
2022-09-01T03:28:46.629Z,14.60
2022-09-01T03:31:13.813Z,14.50
2022-09-01T03:33:41.001Z,14.50
2022-09-01T03:36:15.183Z,14.30
2022-09-01T03:38:44.182Z,14.20
2022-09-01T03:41:13.512Z,14.10
2022-09-01T03:43:45.881Z,14.10
2022-09-01T03:46:22.107Z,14.00
2022-09-01T03:48:55.225Z,14.10
2022-09-01T03:51:24.202Z,14.20
2022-09-01T03:53:55.274Z,14.10
2022-09-01T03:56:28.511Z,14.00
2022-09-01T03:59:00.625Z,13.90
2022-09-01T04:01:32.941Z,13.70
2022-09-01T04:04:01.764Z,13.80
2022-09-01T04:06:30.500Z,13.80
2022-09-01T04:09:03.520Z,13.70
2022-09-01T04:11:31.999Z,13.80
2022-09-01T04:14:00.120Z,13.90
2022-09-01T04:16:50.348Z,13.90
2022-09-01T04:19:26.322Z,13.90
2022-09-01T04:22:00.377Z,14.00
2022-09-01T04:24:31.107Z,13.90
2022-09-01T04:27:02.381Z,13.80
2022-09-01T04:29:30.210Z,13.80
2022-09-01T04:32:04.165Z,13.80
2022-09-01T04:34:42.262Z,13.70
2022-09-01T04:37:13.378Z,13.70
2022-09-01T04:39:51.327Z,13.70
2022-09-01T04:42:23.657Z,13.50
2022-09-01T04:44:56.657Z,13.60
2022-09-01T04:47:35.408Z,13.60
2022-09-01T04:50:13.133Z,13.70
2022-09-01T04:52:44.816Z,13.70
2022-09-01T04:55:18.733Z,13.70
2022-09-01T04:57:49.808Z,13.60
2022-09-01T05:00:23.216Z,13.50
2022-09-01T05:03:04.729Z,13.50
2022-09-01T05:05:44.651Z,13.40
2022-09-01T05:08:23.098Z,13.50
2022-09-01T05:10:55.830Z,13.40
2022-09-01T05:13:23.775Z,13.40
2022-09-01T05:16:07.558Z,13.40
2022-09-01T05:18:35.613Z,13.30
2022-09-01T05:21:10.981Z,13.40
2022-09-01T05:23:41.100Z,13.20
2022-09-01T05:26:24.178Z,13.40
2022-09-01T05:28:55.809Z,13.30
2022-09-01T05:31:23.822Z,13.40
2022-09-01T05:33:51.930Z,13.20
2022-09-01T05:36:23.198Z,13.20
2022-09-01T05:38:52.383Z,13.40
2022-09-01T05:41:20.434Z,13.40
2022-09-01T05:43:49.951Z,13.50
2022-09-01T05:46:21.305Z,13.30
2022-09-01T05:48:50.787Z,13.40
2022-09-01T05:51:43.178Z,13.40
2022-09-01T05:54:12.226Z,13.40
2022-09-01T05:56:44.244Z,13.40
2022-09-01T05:59:29.244Z,13.50
2022-09-01T06:01:56.468Z,13.60
2022-09-01T06:04:28.129Z,13.70
2022-09-01T06:07:06.770Z,13.70
2022-09-01T06:09:39.311Z,13.70
2022-09-01T06:12:07.061Z,13.70
2022-09-01T06:14:34.551Z,13.80
2022-09-01T06:17:02.823Z,13.60
2022-09-01T06:19:34.844Z,13.70
2022-09-01T06:22:06.468Z,13.80
2022-09-01T06:24:34.134Z,13.90
2022-09-01T06:27:01.935Z,14.00
2022-09-01T06:29:31.909Z,14.00
2022-09-01T06:32:00.453Z,14.10
2022-09-01T06:34:27.654Z,14.10
2022-09-01T06:36:55.114Z,14.00
2022-09-01T06:39:22.143Z,14.10
2022-09-01T06:41:53.239Z,14.10
2022-09-01T06:44:25.113Z,14.20
2022-09-01T06:46:52.379Z,14.20
2022-09-01T06:49:21.612Z,14.20
2022-09-01T06:51:52.866Z,14.30
2022-09-01T06:54:21.261Z,14.40
2022-09-01T06:56:51.916Z,14.30
2022-09-01T06:59:20.978Z,14.50
2022-09-01T07:01:49.422Z,14.50
2022-09-01T07:04:20.278Z,14.60
2022-09-01T07:09:48.043Z,15.00
2022-09-01T07:12:27.929Z,15.40
2022-09-01T07:17:50.262Z,16.20
2022-09-01T07:20:25.273Z,16.60
2022-09-01T07:23:08.901Z,16.70
2022-09-01T07:28:37.042Z,17.30
2022-09-01T07:39:51.160Z,18.10
2022-09-01T07:45:27.718Z,18.00
2022-09-01T07:47:55.721Z,18.20
2022-09-01T07:50:38.761Z,18.40
2022-09-01T07:53:09.357Z,18.60
2022-09-01T07:55:42.177Z,18.60
2022-09-01T07:58:11.954Z,18.60
2022-09-01T08:00:40.676Z,18.70
2022-09-01T08:03:07.676Z,18.80
2022-09-01T08:05:35.289Z,19.10
2022-09-01T08:08:03.150Z,19.10
2022-09-01T08:10:31.052Z,19.20
2022-09-01T08:12:58.873Z,19.40
2022-09-01T08:16:06.761Z,19.50
2022-09-01T08:18:14.770Z,19.70
2022-09-01T08:20:45.722Z,19.80
2022-09-01T08:23:18.736Z,20.10
2022-09-01T08:25:46.855Z,20.20
2022-09-01T08:28:15.090Z,20.40
2022-09-01T08:30:52.611Z,20.30
2022-09-01T08:33:19.997Z,20.40
2022-09-01T08:35:48.850Z,20.70
2022-09-01T08:38:15.897Z,20.50
2022-09-01T08:40:43.440Z,20.70
2022-09-01T08:43:37.526Z,20.60
2022-09-01T08:46:10.602Z,20.40
2022-09-01T08:51:37.713Z,20.80
2022-09-01T08:54:29.911Z,21.50
2022-09-01T08:57:10.311Z,21.50
2022-09-01T08:59:57.619Z,22.00
2022-09-01T09:02:44.181Z,21.60
2022-09-01T09:05:54.847Z,21.60
2022-09-01T09:08:46.048Z,21.20
2022-09-01T09:11:30.836Z,21.60
2022-09-01T09:14:00.485Z,21.60
2022-09-01T09:16:34.509Z,21.50
2022-09-01T09:19:06.604Z,21.50
2022-09-01T09:21:39.312Z,21.70
2022-09-01T09:24:20.784Z,22.00
2022-09-01T09:26:54.076Z,22.20
2022-09-01T09:29:22.124Z,22.40
2022-09-01T09:32:01.967Z,21.90
2022-09-01T09:34:35.275Z,21.90
2022-09-01T09:37:26.634Z,22.00
2022-09-01T09:40:10.727Z,22.20
2022-09-01T09:42:40.024Z,22.30
2022-09-01T09:45:25.291Z,22.30
2022-09-01T09:47:53.641Z,22.30
2022-09-01T09:50:20.462Z,22.30
2022-09-01T09:52:48.884Z,22.30
2022-09-01T09:55:30.463Z,22.50
2022-09-01T09:58:01.809Z,22.30
2022-09-01T10:00:32.916Z,22.20
2022-09-01T10:03:07.883Z,22.30
2022-09-01T10:05:51.605Z,22.40
2022-09-01T10:08:27.660Z,22.40
2022-09-01T10:10:58.311Z,22.40
2022-09-01T10:13:28.088Z,22.50
2022-09-01T10:15:57.645Z,22.50
2022-09-01T10:18:34.069Z,22.60
2022-09-01T10:21:09.146Z,22.50
2022-09-01T10:23:37.774Z,22.60
2022-09-01T10:26:09.495Z,22.60
2022-09-01T10:28:41.628Z,22.60
2022-09-01T10:31:17.018Z,22.60
2022-09-01T10:33:44.082Z,22.70
2022-09-01T10:36:11.070Z,22.60
2022-09-01T10:38:39.247Z,22.60
2022-09-01T10:41:14.112Z,22.50
2022-09-01T10:43:41.673Z,22.60
2022-09-01T10:46:24.807Z,22.60
2022-09-01T10:49:03.342Z,22.70
2022-09-01T10:51:45.098Z,22.50
2022-09-01T10:54:50.288Z,22.40
2022-09-01T10:57:45.171Z,22.70
2022-09-01T11:00:39.925Z,22.70
2022-09-01T11:06:15.124Z,22.80
2022-09-01T11:08:55.610Z,22.70
2022-09-01T11:11:46.294Z,22.60
2022-09-01T11:14:22.177Z,22.40
2022-09-01T11:17:13.345Z,22.50
2022-09-01T11:19:58.633Z,22.70
2022-09-01T11:22:45.018Z,22.90
2022-09-01T11:25:14.467Z,23.20
2022-09-01T11:27:50.601Z,22.90
2022-09-01T11:30:32.927Z,23.00
2022-09-01T11:33:19.916Z,22.90
2022-09-01T11:35:47.197Z,22.60
2022-09-01T11:38:16.227Z,22.60
2022-09-01T11:40:43.653Z,22.70
2022-09-01T11:43:13.967Z,22.80
2022-09-01T11:46:07.137Z,22.90
2022-09-01T11:48:35.041Z,22.70
2022-09-01T11:51:03.439Z,22.70
2022-09-01T11:53:30.650Z,22.80
2022-09-01T11:56:16.325Z,23.20
2022-09-01T11:58:43.815Z,23.40
2022-09-01T12:01:30.746Z,23.40
2022-09-01T12:03:59.210Z,23.30
2022-09-01T12:06:30.211Z,23.40
2022-09-01T12:08:59.010Z,23.50
2022-09-01T12:11:31.671Z,23.50
2022-09-01T12:14:11.137Z,23.50
2022-09-01T12:16:42.208Z,23.70
2022-09-01T12:19:21.647Z,23.60
2022-09-01T12:21:57.329Z,23.70
2022-09-01T12:24:24.851Z,23.70
2022-09-01T12:26:57.833Z,23.70
2022-09-01T12:29:28.810Z,23.90
2022-09-01T12:31:59.187Z,23.80
2022-09-01T12:34:42.782Z,23.60
2022-09-01T12:37:20.723Z,23.50
2022-09-01T12:39:50.414Z,23.60
2022-09-01T12:42:20.225Z,23.90
2022-09-01T12:45:00.397Z,24.00
2022-09-01T12:47:33.587Z,24.00
2022-09-01T12:50:05.574Z,24.10
2022-09-01T12:52:34.544Z,24.20
2022-09-01T12:55:03.094Z,24.20
2022-09-01T12:57:35.198Z,24.20
2022-09-01T13:00:12.518Z,24.00
2022-09-01T13:02:45.371Z,24.00
2022-09-01T13:05:37.331Z,24.00
2022-09-01T13:08:10.350Z,24.20
2022-09-01T13:10:43.514Z,24.40
2022-09-01T13:13:10.999Z,24.50
2022-09-01T13:15:40.511Z,24.50
2022-09-01T13:18:07.488Z,24.40
2022-09-01T13:20:34.526Z,24.70
2022-09-01T13:23:01.727Z,24.90
2022-09-01T13:25:29.213Z,24.80
2022-09-01T13:27:56.393Z,24.80
2022-09-01T13:30:28.869Z,24.50
2022-09-01T13:35:43.710Z,24.70
2022-09-01T13:38:10.814Z,24.60
2022-09-01T13:40:37.861Z,24.60
2022-09-01T13:43:06.274Z,24.80
2022-09-01T13:45:33.562Z,24.80
2022-09-01T13:48:17.036Z,24.90
2022-09-01T13:53:37.023Z,25.00
2022-09-01T13:56:04.145Z,24.90
2022-09-01T13:58:31.124Z,25.00
2022-09-01T14:01:00.366Z,25.20
2022-09-01T14:03:27.673Z,25.00
2022-09-01T14:05:54.791Z,25.00
2022-09-01T14:08:22.729Z,25.00
2022-09-01T14:10:51.578Z,25.00
2022-09-01T14:13:23.004Z,25.00
2022-09-01T14:15:50.326Z,25.10
2022-09-01T14:18:17.888Z,24.90
2022-09-01T14:20:51.099Z,25.00
2022-09-01T14:23:19.206Z,25.10
2022-09-01T14:25:50.723Z,24.90
2022-09-01T14:28:20.341Z,25.00
2022-09-01T14:30:48.292Z,24.90
2022-09-01T14:33:15.412Z,25.00
2022-09-01T14:35:45.537Z,24.90
2022-09-01T14:38:14.018Z,24.80
2022-09-01T14:40:41.564Z,24.80
2022-09-01T14:43:10.506Z,24.90
2022-09-01T14:45:40.280Z,24.80
2022-09-01T14:48:09.434Z,25.00
2022-09-01T14:50:41.030Z,24.90
2022-09-01T14:53:08.961Z,25.10
2022-09-01T14:55:35.964Z,25.20
2022-09-01T14:58:03.417Z,25.30
2022-09-01T15:00:31.964Z,25.20
2022-09-01T15:02:59.118Z,24.90
2022-09-01T15:05:26.186Z,24.80
2022-09-01T15:07:53.931Z,24.60
2022-09-01T15:10:24.936Z,24.50
2022-09-01T15:12:54.740Z,24.50
2022-09-01T15:15:21.793Z,24.70
2022-09-01T15:17:48.792Z,24.80
2022-09-01T15:20:34.474Z,24.90
2022-09-01T15:23:04.529Z,24.90
2022-09-01T15:25:31.827Z,24.90
2022-09-01T15:27:58.996Z,24.90
2022-09-01T15:30:25.990Z,24.70
2022-09-01T15:32:54.438Z,24.80
2022-09-01T15:35:22.443Z,24.70
2022-09-01T15:37:50.231Z,24.90
2022-09-01T15:40:18.179Z,24.80
2022-09-01T15:42:45.283Z,24.70
2022-09-01T15:45:15.041Z,24.70
2022-09-01T15:47:45.579Z,24.60
2022-09-01T15:50:21.384Z,24.60
2022-09-01T15:52:59.994Z,24.60
2022-09-01T15:55:37.492Z,24.50
2022-09-01T15:58:04.507Z,24.40
2022-09-01T16:00:34.065Z,24.40
2022-09-01T16:03:03.766Z,24.40
2022-09-01T16:05:31.806Z,24.40
2022-09-01T16:08:01.819Z,24.40
2022-09-01T16:10:33.540Z,24.20
2022-09-01T16:13:03.497Z,24.00
2022-09-01T16:15:30.685Z,24.00
2022-09-01T16:18:15.940Z,24.00
2022-09-01T16:21:02.916Z,23.90
2022-09-01T16:23:55.087Z,24.00
2022-09-01T16:26:23.249Z,24.00
2022-09-01T16:28:52.717Z,23.90
2022-09-01T16:31:29.711Z,23.80
2022-09-01T16:34:01.966Z,23.80
2022-09-01T16:36:40.741Z,23.80
2022-09-01T16:39:21.698Z,23.80
2022-09-01T16:42:07.219Z,23.70
2022-09-01T16:44:40.203Z,23.70
2022-09-01T16:47:39.196Z,23.70
2022-09-01T16:50:27.720Z,23.60
2022-09-01T16:53:25.810Z,23.60
2022-09-01T16:56:04.479Z,23.60
2022-09-01T16:59:12.082Z,23.60
2022-09-01T17:01:49.353Z,23.40
2022-09-01T17:04:28.976Z,23.20
2022-09-01T17:06:57.294Z,23.30
2022-09-01T17:09:33.092Z,23.20
2022-09-01T17:12:23.379Z,23.30
2022-09-01T17:15:00.494Z,23.20
2022-09-01T17:17:35.566Z,23.10
2022-09-01T17:20:03.885Z,23.00
2022-09-01T17:22:30.855Z,23.00
2022-09-01T17:25:09.969Z,22.90
2022-09-01T17:27:59.809Z,22.80
2022-09-01T17:30:27.329Z,22.80
2022-09-01T17:33:18.690Z,22.80
2022-09-01T17:36:14.180Z,22.80
2022-09-01T17:39:33.031Z,22.80
2022-09-01T17:42:34.632Z,22.70
2022-09-01T17:45:45.745Z,22.60
2022-09-01T17:48:18.489Z,22.60
2022-09-01T17:51:09.136Z,22.50
2022-09-01T17:53:52.328Z,22.40
2022-09-01T17:56:42.494Z,22.40
2022-09-01T17:59:16.131Z,22.30
2022-09-01T18:02:05.308Z,22.10
2022-09-01T18:04:52.844Z,22.10
2022-09-01T18:07:30.339Z,22.00
2022-09-01T18:10:00.914Z,21.90
2022-09-01T18:12:35.746Z,21.80
2022-09-01T18:15:11.469Z,21.80
2022-09-01T18:17:49.770Z,21.60
2022-09-01T18:20:45.096Z,21.60
2022-09-01T18:23:17.696Z,21.60
2022-09-01T18:26:00.662Z,21.60
2022-09-01T18:28:27.817Z,21.50
2022-09-01T18:31:13.158Z,21.50
2022-09-01T18:33:46.173Z,21.40
2022-09-01T18:36:46.786Z,21.30
2022-09-01T18:39:24.964Z,21.10
2022-09-01T18:42:36.146Z,21.20
2022-09-01T18:45:27.764Z,21.00
2022-09-01T18:48:06.796Z,20.90
2022-09-01T18:51:20.369Z,20.90
2022-09-01T18:53:48.692Z,20.80
2022-09-01T18:56:57.545Z,20.70
2022-09-01T18:59:53.847Z,20.70
2022-09-01T19:02:54.720Z,20.60
2022-09-01T19:05:36.104Z,20.60
2022-09-01T19:08:30.636Z,20.50
2022-09-01T19:11:16.524Z,20.40
2022-09-01T19:14:00.357Z,20.30
2022-09-01T19:16:45.440Z,20.10
2022-09-01T19:20:11.184Z,20.00
2022-09-01T19:22:56.677Z,19.80
2022-09-01T19:25:39.494Z,19.70
2022-09-01T19:28:40.233Z,19.70
2022-09-01T19:31:22.302Z,19.80
2022-09-01T19:33:58.531Z,19.90
2022-09-01T19:36:41.886Z,19.80
2022-09-01T19:39:18.935Z,19.70
2022-09-01T19:42:36.850Z,19.70
2022-09-01T19:45:28.803Z,19.60
2022-09-01T19:48:53.873Z,19.40
2022-09-01T19:51:30.685Z,19.20
2022-09-01T19:54:32.695Z,19.30
2022-09-01T19:57:21.231Z,19.30
2022-09-01T19:59:58.907Z,19.30
2022-09-01T20:02:33.674Z,19.30
2022-09-01T20:05:25.801Z,19.20
2022-09-01T20:08:15.934Z,19.10
2022-09-01T20:11:14.745Z,19.10
2022-09-01T20:14:07.210Z,18.90
2022-09-01T20:16:43.416Z,18.80
2022-09-01T20:19:41.501Z,18.80
2022-09-01T20:22:42.372Z,18.70
2022-09-01T20:25:16.566Z,18.40
2022-09-01T20:28:01.838Z,18.30
2022-09-01T20:30:41.747Z,18.30
2022-09-01T20:33:44.293Z,18.40
2022-09-01T20:36:20.289Z,18.40
2022-09-01T20:39:43.384Z,18.40
2022-09-01T20:42:43.988Z,18.30
2022-09-01T20:45:22.981Z,18.30
2022-09-01T20:47:58.128Z,18.20
2022-09-01T20:50:43.181Z,18.00
2022-09-01T20:53:41.261Z,18.00
2022-09-01T20:56:31.940Z,18.10
2022-09-01T20:59:38.924Z,18.20
2022-09-01T21:02:34.496Z,18.10
2022-09-01T21:05:20.776Z,18.10
2022-09-01T21:08:21.535Z,17.90
2022-09-01T21:11:08.986Z,18.00
2022-09-01T21:14:37.698Z,17.90
2022-09-01T21:17:29.948Z,17.80
2022-09-01T21:20:19.518Z,17.90
2022-09-01T21:22:46.650Z,17.60
2022-09-01T21:25:13.602Z,17.50
2022-09-01T21:27:55.622Z,17.60
2022-09-01T21:30:24.051Z,17.60
2022-09-01T21:32:53.903Z,17.60
2022-09-01T21:35:22.261Z,17.50
2022-09-01T21:37:49.454Z,17.60
2022-09-01T21:40:17.552Z,17.50
2022-09-01T21:42:47.704Z,17.30
2022-09-01T21:45:16.275Z,17.10
2022-09-01T21:47:44.185Z,17.20
2022-09-01T21:50:11.446Z,17.10
2022-09-01T21:52:38.741Z,17.20
2022-09-01T21:55:06.574Z,17.30
2022-09-01T21:57:33.679Z,17.50
2022-09-01T22:00:21.106Z,17.60
2022-09-01T22:02:48.216Z,17.60
2022-09-01T22:05:15.234Z,17.60
2022-09-01T22:07:44.854Z,17.60
2022-09-01T22:10:17.003Z,17.50
2022-09-01T22:12:45.469Z,17.40
2022-09-01T22:15:13.682Z,17.30
2022-09-01T22:17:40.801Z,17.00
2022-09-01T22:20:10.432Z,16.90
2022-09-01T22:22:37.445Z,16.90
2022-09-01T22:25:16.261Z,17.10
2022-09-01T22:27:43.751Z,17.20
2022-09-01T22:30:13.031Z,17.20
2022-09-01T22:32:41.486Z,17.00
2022-09-01T22:35:11.067Z,16.90
2022-09-01T22:37:39.166Z,16.50
2022-09-01T22:40:08.831Z,16.50
2022-09-01T22:42:36.260Z,16.50
2022-09-01T22:45:08.558Z,16.50
2022-09-01T22:47:37.382Z,16.40
2022-09-01T22:50:07.269Z,16.50
2022-09-01T22:52:35.722Z,16.40
2022-09-01T22:55:03.757Z,16.40
2022-09-01T22:57:31.019Z,16.20
2022-09-01T22:59:58.634Z,16.30
2022-09-01T23:02:26.526Z,16.00
2022-09-01T23:04:53.606Z,16.10
2022-09-01T23:07:20.619Z,16.10
2022-09-01T23:09:47.828Z,16.10
2022-09-01T23:12:14.842Z,16.10
2022-09-01T23:14:42.267Z,16.10
2022-09-01T23:17:09.397Z,16.20
2022-09-01T23:19:36.446Z,16.20
2022-09-01T23:22:03.855Z,16.10
2022-09-01T23:24:32.426Z,15.90
2022-09-01T23:27:01.954Z,15.80
2022-09-01T23:29:29.334Z,16.00
2022-09-01T23:31:57.725Z,16.00
2022-09-01T23:34:24.785Z,16.00
2022-09-01T23:36:51.855Z,16.00
2022-09-01T23:39:18.942Z,15.80
2022-09-01T23:41:45.960Z,15.70
2022-09-01T23:44:13.739Z,15.80
2022-09-01T23:46:43.843Z,15.80
2022-09-01T23:49:12.543Z,16.00
2022-09-01T23:51:40.261Z,16.10
2022-09-01T23:54:07.415Z,16.10
2022-09-01T23:56:34.426Z,16.20
2022-09-01T23:59:01.950Z,16.00
